sensor_id;sensor_type;location;lat;lon;timestamp;P1;durP1;ratioP1;P2;durP2;ratioP2
69856;SDS011;57147;53.582;10.112;2022-12-07T00:04:42;16.35;;;9.25;;
69856;SDS011;57147;53.582;10.112;2022-12-07T00:09:43;24.00;;;12.82;;
69856;SDS011;57147;53.582;10.112;2022-12-07T00:14:43;18.50;;;10.55;;
69856;SDS011;57147;53.582;10.112;2022-12-07T00:19:46;19.55;;;11.63;;
69856;SDS011;57147;53.582;10.112;2022-12-07T00:24:47;18.15;;;11.23;;
69856;SDS011;57147;53.582;10.112;2022-12-07T00:29:47;15.13;;;9.38;;
69856;SDS011;57147;53.582;10.112;2022-12-07T00:34:50;16.00;;;10.32;;
69856;SDS011;57147;53.582;10.112;2022-12-07T00:39:51;16.95;;;10.68;;
69856;SDS011;57147;53.582;10.112;2022-12-07T00:44:52;17.42;;;10.73;;
69856;SDS011;57147;53.582;10.112;2022-12-07T00:49:55;17.63;;;9.40;;
69856;SDS011;57147;53.582;10.112;2022-12-07T00:54:55;17.90;;;12.60;;
69856;SDS011;57147;53.582;10.112;2022-12-07T00:59:56;15.15;;;9.05;;
69856;SDS011;57147;53.582;10.112;2022-12-07T01:04:59;15.52;;;9.85;;
69856;SDS011;57147;53.582;10.112;2022-12-07T01:10:00;16.95;;;10.70;;
69856;SDS011;57147;53.582;10.112;2022-12-07T01:15:00;14.98;;;8.73;;
69856;SDS011;57147;53.582;10.112;2022-12-07T01:20:04;15.18;;;9.43;;
69856;SDS011;57147;53.582;10.112;2022-12-07T01:25:06;17.10;;;12.75;;
69856;SDS011;57147;53.582;10.112;2022-12-07T01:30:09;16.05;;;9.38;;
69856;SDS011;57147;53.582;10.112;2022-12-07T01:35:14;16.42;;;7.93;;
69856;SDS011;57147;53.582;10.112;2022-12-07T01:40:14;14.10;;;8.60;;
69856;SDS011;57147;53.582;10.112;2022-12-07T01:50:40;15.15;;;8.60;;
69856;SDS011;57147;53.582;10.112;2022-12-07T01:55:44;15.77;;;8.95;;
69856;SDS011;57147;53.582;10.112;2022-12-07T02:00:48;16.40;;;12.05;;
69856;SDS011;57147;53.582;10.112;2022-12-07T02:05:51;14.25;;;8.80;;
69856;SDS011;57147;53.582;10.112;2022-12-07T02:10:53;17.77;;;9.13;;
69856;SDS011;57147;53.582;10.112;2022-12-07T02:16:01;15.90;;;10.63;;
69856;SDS011;57147;53.582;10.112;2022-12-07T02:21:12;16.83;;;7.57;;
69856;SDS011;57147;53.582;10.112;2022-12-07T02:32:04;10.40;;;6.68;;
69856;SDS011;57147;53.582;10.112;2022-12-07T02:37:10;14.65;;;4.78;;
69856;SDS011;57147;53.582;10.112;2022-12-07T02:42:18;8.90;;;5.13;;
69856;SDS011;57147;53.582;10.112;2022-12-07T02:47:26;10.20;;;4.97;;
69856;SDS011;57147;53.582;10.112;2022-12-07T02:52:29;9.68;;;4.30;;
69856;SDS011;57147;53.582;10.112;2022-12-07T02:57:35;7.53;;;3.67;;
69856;SDS011;57147;53.582;10.112;2022-12-07T03:02:50;7.43;;;3.13;;
69856;SDS011;57147;53.582;10.112;2022-12-07T03:07:58;9.40;;;5.43;;
69856;SDS011;57147;53.582;10.112;2022-12-07T03:13:03;5.70;;;2.38;;
69856;SDS011;57147;53.582;10.112;2022-12-07T03:18:12;5.93;;;2.05;;
69856;SDS011;57147;53.582;10.112;2022-12-07T03:23:16;9.05;;;2.22;;
69856;SDS011;57147;53.582;10.112;2022-12-07T03:28:19;6.63;;;2.53;;
69856;SDS011;57147;53.582;10.112;2022-12-07T03:33:26;8.95;;;2.67;;
69856;SDS011;57147;53.582;10.112;2022-12-07T03:38:30;3.20;;;1.58;;
69856;SDS011;57147;53.582;10.112;2022-12-07T03:43:34;3.22;;;1.65;;
69856;SDS011;57147;53.582;10.112;2022-12-07T03:48:40;5.35;;;4.75;;
69856;SDS011;57147;53.582;10.112;2022-12-07T03:53:46;4.30;;;2.03;;
69856;SDS011;57147;53.582;10.112;2022-12-07T03:58:52;7.10;;;1.45;;
69856;SDS011;57147;53.582;10.112;2022-12-07T04:03:56;4.90;;;3.13;;
69856;SDS011;57147;53.582;10.112;2022-12-07T04:08:57;5.95;;;3.58;;
69856;SDS011;57147;53.582;10.112;2022-12-07T04:13:58;3.97;;;1.38;;
69856;SDS011;57147;53.582;10.112;2022-12-07T04:19:01;2.50;;;1.30;;
69856;SDS011;57147;53.582;10.112;2022-12-07T04:24:02;2.75;;;1.70;;
69856;SDS011;57147;53.582;10.112;2022-12-07T04:29:02;5.93;;;1.20;;
69856;SDS011;57147;53.582;10.112;2022-12-07T04:34:06;3.80;;;1.70;;
69856;SDS011;57147;53.582;10.112;2022-12-07T04:39:07;3.50;;;2.13;;
69856;SDS011;57147;53.582;10.112;2022-12-07T04:44:14;3.63;;;1.92;;
69856;SDS011;57147;53.582;10.112;2022-12-07T04:49:18;4.95;;;1.65;;
69856;SDS011;57147;53.582;10.112;2022-12-07T04:54:20;3.65;;;1.63;;
69856;SDS011;57147;53.582;10.112;2022-12-07T04:59:21;3.45;;;1.67;;
69856;SDS011;57147;53.582;10.112;2022-12-07T05:04:24;3.10;;;2.00;;
69856;SDS011;57147;53.582;10.112;2022-12-07T05:09:24;4.18;;;1.60;;
69856;SDS011;57147;53.582;10.112;2022-12-07T05:14:25;4.80;;;2.33;;
69856;SDS011;57147;53.582;10.112;2022-12-07T05:19:28;3.97;;;1.75;;
69856;SDS011;57147;53.582;10.112;2022-12-07T05:24:29;7.72;;;2.33;;
69856;SDS011;57147;53.582;10.112;2022-12-07T05:29:30;4.38;;;2.13;;
69856;SDS011;57147;53.582;10.112;2022-12-07T05:34:33;5.70;;;2.15;;
69856;SDS011;57147;53.582;10.112;2022-12-07T05:39:34;6.50;;;3.42;;
69856;SDS011;57147;53.582;10.112;2022-12-07T05:44:34;6.38;;;2.58;;
69856;SDS011;57147;53.582;10.112;2022-12-07T05:49:37;4.25;;;2.30;;
69856;SDS011;57147;53.582;10.112;2022-12-07T05:54:38;7.45;;;4.60;;
69856;SDS011;57147;53.582;10.112;2022-12-07T05:59:39;5.15;;;2.78;;
69856;SDS011;57147;53.582;10.112;2022-12-07T06:04:43;4.10;;;3.22;;
69856;SDS011;57147;53.582;10.112;2022-12-07T06:09:44;6.53;;;2.40;;
69856;SDS011;57147;53.582;10.112;2022-12-07T06:14:45;4.22;;;2.72;;
69856;SDS011;57147;53.582;10.112;2022-12-07T06:19:48;7.70;;;2.88;;
69856;SDS011;57147;53.582;10.112;2022-12-07T06:24:49;4.20;;;2.70;;
69856;SDS011;57147;53.582;10.112;2022-12-07T06:29:50;6.18;;;2.72;;
69856;SDS011;57147;53.582;10.112;2022-12-07T06:34:53;7.93;;;2.97;;
69856;SDS011;57147;53.582;10.112;2022-12-07T06:39:53;5.05;;;2.92;;
69856;SDS011;57147;53.582;10.112;2022-12-07T06:44:54;4.28;;;2.75;;
69856;SDS011;57147;53.582;10.112;2022-12-07T06:49:57;4.40;;;2.38;;
69856;SDS011;57147;53.582;10.112;2022-12-07T06:54:58;4.13;;;1.80;;
69856;SDS011;57147;53.582;10.112;2022-12-07T06:59:58;6.95;;;2.65;;
69856;SDS011;57147;53.582;10.112;2022-12-07T07:05:01;2.67;;;1.75;;
69856;SDS011;57147;53.582;10.112;2022-12-07T07:10:03;4.30;;;2.15;;
69856;SDS011;57147;53.582;10.112;2022-12-07T07:15:04;6.05;;;2.28;;
69856;SDS011;57147;53.582;10.112;2022-12-07T07:20:09;3.00;;;2.53;;
69856;SDS011;57147;53.582;10.112;2022-12-07T07:25:10;5.45;;;1.67;;
69856;SDS011;57147;53.582;10.112;2022-12-07T07:30:11;3.40;;;1.33;;
69856;SDS011;57147;53.582;10.112;2022-12-07T07:35:15;6.88;;;1.67;;
69856;SDS011;57147;53.582;10.112;2022-12-07T07:40:16;4.30;;;3.60;;
69856;SDS011;57147;53.582;10.112;2022-12-07T07:45:16;9.27;;;1.55;;
69856;SDS011;57147;53.582;10.112;2022-12-07T07:50:21;6.72;;;3.78;;
69856;SDS011;57147;53.582;10.112;2022-12-07T07:55:22;6.72;;;2.65;;
69856;SDS011;57147;53.582;10.112;2022-12-07T08:00:22;5.55;;;1.92;;
69856;SDS011;57147;53.582;10.112;2022-12-07T08:05:26;6.13;;;2.08;;
69856;SDS011;57147;53.582;10.112;2022-12-07T08:10:26;6.43;;;3.97;;
69856;SDS011;57147;53.582;10.112;2022-12-07T08:15:27;5.70;;;1.15;;
69856;SDS011;57147;53.582;10.112;2022-12-07T08:20:32;4.10;;;0.95;;
69856;SDS011;57147;53.582;10.112;2022-12-07T08:25:34;3.50;;;1.65;;
69856;SDS011;57147;53.582;10.112;2022-12-07T08:30:35;7.47;;;2.05;;
69856;SDS011;57147;53.582;10.112;2022-12-07T08:35:38;4.03;;;1.63;;
69856;SDS011;57147;53.582;10.112;2022-12-07T08:40:39;3.85;;;1.60;;
69856;SDS011;57147;53.582;10.112;2022-12-07T08:45:39;3.88;;;1.98;;
69856;SDS011;57147;53.582;10.112;2022-12-07T08:50:43;4.85;;;1.48;;
69856;SDS011;57147;53.582;10.112;2022-12-07T08:55:44;4.43;;;1.08;;
69856;SDS011;57147;53.582;10.112;2022-12-07T09:00:46;5.72;;;1.80;;
69856;SDS011;57147;53.582;10.112;2022-12-07T09:05:49;2.58;;;1.27;;
69856;SDS011;57147;53.582;10.112;2022-12-07T09:10:50;5.82;;;1.08;;
69856;SDS011;57147;53.582;10.112;2022-12-07T09:15:51;3.17;;;1.20;;
69856;SDS011;57147;53.582;10.112;2022-12-07T09:20:54;2.20;;;0.90;;
69856;SDS011;57147;53.582;10.112;2022-12-07T09:25:58;6.32;;;1.10;;
69856;SDS011;57147;53.582;10.112;2022-12-07T09:30:59;5.18;;;1.98;;
69856;SDS011;57147;53.582;10.112;2022-12-07T09:36:02;10.05;;;5.90;;
69856;SDS011;57147;53.582;10.112;2022-12-07T09:41:05;7.38;;;1.80;;
69856;SDS011;57147;53.582;10.112;2022-12-07T09:46:08;6.78;;;1.23;;
69856;SDS011;57147;53.582;10.112;2022-12-07T09:51:16;6.97;;;1.25;;
69856;SDS011;57147;53.582;10.112;2022-12-07T09:56:19;6.57;;;2.83;;
69856;SDS011;57147;53.582;10.112;2022-12-07T10:01:21;3.75;;;1.25;;
69856;SDS011;57147;53.582;10.112;2022-12-07T10:06:24;9.68;;;0.93;;
69856;SDS011;57147;53.582;10.112;2022-12-07T10:11:25;5.70;;;1.33;;
69856;SDS011;57147;53.582;10.112;2022-12-07T10:16:31;3.53;;;0.80;;
69856;SDS011;57147;53.582;10.112;2022-12-07T10:21:41;4.80;;;1.67;;
69856;SDS011;57147;53.582;10.112;2022-12-07T10:27:00;4.97;;;2.00;;
69856;SDS011;57147;53.582;10.112;2022-12-07T10:32:02;3.53;;;0.40;;
69856;SDS011;57147;53.582;10.112;2022-12-07T10:37:14;7.43;;;1.25;;
69856;SDS011;57147;53.582;10.112;2022-12-07T10:42:18;8.35;;;1.33;;
69856;SDS011;57147;53.582;10.112;2022-12-07T10:47:29;5.82;;;1.00;;
69856;SDS011;57147;53.582;10.112;2022-12-07T10:58:40;7.45;;;0.88;;
69856;SDS011;57147;53.582;10.112;2022-12-07T11:03:54;4.10;;;0.98;;
69856;SDS011;57147;53.582;10.112;2022-12-07T11:09:19;5.43;;;1.50;;
69856;SDS011;57147;53.582;10.112;2022-12-07T11:14:36;7.50;;;1.52;;
69856;SDS011;57147;53.582;10.112;2022-12-07T11:19:46;4.78;;;0.95;;
69856;SDS011;57147;53.582;10.112;2022-12-07T11:24:57;4.68;;;1.00;;
69856;SDS011;57147;53.582;10.112;2022-12-07T11:30:15;5.75;;;1.15;;
69856;SDS011;57147;53.582;10.112;2022-12-07T11:35:21;3.28;;;0.88;;
69856;SDS011;57147;53.582;10.112;2022-12-07T11:40:31;5.65;;;1.75;;
69856;SDS011;57147;53.582;10.112;2022-12-07T11:45:37;8.10;;;1.60;;
69856;SDS011;57147;53.582;10.112;2022-12-07T11:50:43;8.02;;;1.23;;
69856;SDS011;57147;53.582;10.112;2022-12-07T11:55:48;6.78;;;1.30;;
69856;SDS011;57147;53.582;10.112;2022-12-07T12:00:54;3.15;;;0.75;;
69856;SDS011;57147;53.582;10.112;2022-12-07T12:06:02;5.85;;;0.98;;
69856;SDS011;57147;53.582;10.112;2022-12-07T12:11:05;8.27;;;2.42;;
69856;SDS011;57147;53.582;10.112;2022-12-07T12:16:31;8.50;;;0.93;;
69856;SDS011;57147;53.582;10.112;2022-12-07T12:21:49;4.18;;;1.05;;
69856;SDS011;57147;53.582;10.112;2022-12-07T12:26:56;4.10;;;0.45;;
69856;SDS011;57147;53.582;10.112;2022-12-07T12:32:07;5.43;;;0.65;;
69856;SDS011;57147;53.582;10.112;2022-12-07T12:42:43;7.32;;;0.43;;
69856;SDS011;57147;53.582;10.112;2022-12-07T12:53:27;8.43;;;1.08;;
69856;SDS011;57147;53.582;10.112;2022-12-07T12:58:29;3.58;;;0.80;;
69856;SDS011;57147;53.582;10.112;2022-12-07T13:03:37;5.38;;;0.90;;
69856;SDS011;57147;53.582;10.112;2022-12-07T13:08:39;5.40;;;0.82;;
69856;SDS011;57147;53.582;10.112;2022-12-07T13:13:41;6.45;;;0.85;;
69856;SDS011;57147;53.582;10.112;2022-12-07T13:18:45;7.32;;;1.13;;
69856;SDS011;57147;53.582;10.112;2022-12-07T13:23:52;4.97;;;1.35;;
69856;SDS011;57147;53.582;10.112;2022-12-07T13:29:04;5.95;;;1.17;;
69856;SDS011;57147;53.582;10.112;2022-12-07T13:39:44;10.48;;;1.10;;
69856;SDS011;57147;53.582;10.112;2022-12-07T13:44:47;5.35;;;1.48;;
69856;SDS011;57147;53.582;10.112;2022-12-07T13:49:51;6.55;;;1.05;;
69856;SDS011;57147;53.582;10.112;2022-12-07T13:54:55;3.30;;;0.50;;
69856;SDS011;57147;53.582;10.112;2022-12-07T13:59:58;3.67;;;0.88;;
69856;SDS011;57147;53.582;10.112;2022-12-07T14:05:09;7.30;;;5.18;;
69856;SDS011;57147;53.582;10.112;2022-12-07T14:10:22;4.70;;;1.27;;
69856;SDS011;57147;53.582;10.112;2022-12-07T14:15:24;2.00;;;0.50;;
69856;SDS011;57147;53.582;10.112;2022-12-07T14:20:33;4.90;;;1.48;;
69856;SDS011;57147;53.582;10.112;2022-12-07T14:25:44;2.53;;;1.02;;
69856;SDS011;57147;53.582;10.112;2022-12-07T14:30:46;2.22;;;0.63;;
69856;SDS011;57147;53.582;10.112;2022-12-07T14:35:49;1.38;;;0.45;;
69856;SDS011;57147;53.582;10.112;2022-12-07T14:40:50;3.70;;;0.98;;
69856;SDS011;57147;53.582;10.112;2022-12-07T14:45:52;3.22;;;1.00;;
69856;SDS011;57147;53.582;10.112;2022-12-07T14:50:55;3.75;;;1.40;;
69856;SDS011;57147;53.582;10.112;2022-12-07T14:55:56;7.03;;;2.47;;
69856;SDS011;57147;53.582;10.112;2022-12-07T15:00:56;5.72;;;2.75;;
69856;SDS011;57147;53.582;10.112;2022-12-07T15:06:00;4.57;;;3.05;;
69856;SDS011;57147;53.582;10.112;2022-12-07T15:11:01;4.85;;;2.38;;
69856;SDS011;57147;53.582;10.112;2022-12-07T15:16:02;4.15;;;1.77;;
69856;SDS011;57147;53.582;10.112;2022-12-07T15:21:09;3.83;;;1.60;;
69856;SDS011;57147;53.582;10.112;2022-12-07T15:26:12;3.05;;;0.98;;
69856;SDS011;57147;53.582;10.112;2022-12-07T15:31:13;6.53;;;1.60;;
69856;SDS011;57147;53.582;10.112;2022-12-07T15:36:18;3.75;;;1.13;;
69856;SDS011;57147;53.582;10.112;2022-12-07T15:41:20;5.15;;;1.80;;
69856;SDS011;57147;53.582;10.112;2022-12-07T15:46:21;5.15;;;2.50;;
69856;SDS011;57147;53.582;10.112;2022-12-07T15:51:25;4.75;;;1.27;;
69856;SDS011;57147;53.582;10.112;2022-12-07T15:56:26;5.00;;;1.33;;
69856;SDS011;57147;53.582;10.112;2022-12-07T16:01:27;2.03;;;1.00;;
69856;SDS011;57147;53.582;10.112;2022-12-07T16:06:31;1.67;;;0.68;;
69856;SDS011;57147;53.582;10.112;2022-12-07T16:11:32;4.68;;;1.15;;
69856;SDS011;57147;53.582;10.112;2022-12-07T16:16:32;4.45;;;1.92;;
69856;SDS011;57147;53.582;10.112;2022-12-07T16:21:36;6.72;;;2.30;;
69856;SDS011;57147;53.582;10.112;2022-12-07T16:26:38;3.58;;;1.85;;
69856;SDS011;57147;53.582;10.112;2022-12-07T16:31:38;4.53;;;1.52;;
69856;SDS011;57147;53.582;10.112;2022-12-07T16:36:42;6.25;;;1.38;;
69856;SDS011;57147;53.582;10.112;2022-12-07T16:41:43;4.38;;;3.55;;
69856;SDS011;57147;53.582;10.112;2022-12-07T16:46:43;4.57;;;1.92;;
69856;SDS011;57147;53.582;10.112;2022-12-07T16:51:47;4.82;;;4.38;;
69856;SDS011;57147;53.582;10.112;2022-12-07T16:56:49;3.50;;;1.88;;
69856;SDS011;57147;53.582;10.112;2022-12-07T17:01:50;7.30;;;2.85;;
69856;SDS011;57147;53.582;10.112;2022-12-07T17:06:53;3.47;;;1.75;;
69856;SDS011;57147;53.582;10.112;2022-12-07T17:11:55;5.40;;;1.60;;
69856;SDS011;57147;53.582;10.112;2022-12-07T17:16:55;4.13;;;1.48;;
69856;SDS011;57147;53.582;10.112;2022-12-07T17:21:59;4.85;;;3.78;;
69856;SDS011;57147;53.582;10.112;2022-12-07T17:26:59;7.68;;;4.45;;
69856;SDS011;57147;53.582;10.112;2022-12-07T17:32:00;7.38;;;1.70;;
69856;SDS011;57147;53.582;10.112;2022-12-07T17:37:03;4.10;;;1.45;;
69856;SDS011;57147;53.582;10.112;2022-12-07T17:42:05;4.28;;;1.75;;
69856;SDS011;57147;53.582;10.112;2022-12-07T17:47:05;10.43;;;3.40;;
69856;SDS011;57147;53.582;10.112;2022-12-07T17:52:09;6.72;;;2.78;;
69856;SDS011;57147;53.582;10.112;2022-12-07T17:57:09;8.27;;;2.78;;
69856;SDS011;57147;53.582;10.112;2022-12-07T18:02:10;8.75;;;2.22;;
69856;SDS011;57147;53.582;10.112;2022-12-07T18:07:13;5.97;;;2.80;;
69856;SDS011;57147;53.582;10.112;2022-12-07T18:12:14;10.25;;;3.35;;
69856;SDS011;57147;53.582;10.112;2022-12-07T18:17:15;8.10;;;3.17;;
69856;SDS011;57147;53.582;10.112;2022-12-07T18:22:19;7.60;;;2.90;;
69856;SDS011;57147;53.582;10.112;2022-12-07T18:27:20;9.68;;;4.03;;
69856;SDS011;57147;53.582;10.112;2022-12-07T18:32:20;6.35;;;3.63;;
69856;SDS011;57147;53.582;10.112;2022-12-07T18:37:23;7.00;;;2.95;;
69856;SDS011;57147;53.582;10.112;2022-12-07T18:42:24;7.28;;;2.78;;
69856;SDS011;57147;53.582;10.112;2022-12-07T18:47:25;9.00;;;2.90;;
69856;SDS011;57147;53.582;10.112;2022-12-07T18:52:28;9.55;;;3.17;;
69856;SDS011;57147;53.582;10.112;2022-12-07T18:57:30;9.23;;;4.07;;
69856;SDS011;57147;53.582;10.112;2022-12-07T19:02:31;10.40;;;6.60;;
69856;SDS011;57147;53.582;10.112;2022-12-07T19:07:34;7.70;;;3.65;;
69856;SDS011;57147;53.582;10.112;2022-12-07T19:12:35;7.05;;;3.65;;
69856;SDS011;57147;53.582;10.112;2022-12-07T19:17:36;7.15;;;3.28;;
69856;SDS011;57147;53.582;10.112;2022-12-07T19:22:39;9.52;;;3.50;;
69856;SDS011;57147;53.582;10.112;2022-12-07T19:27:40;8.35;;;4.22;;
69856;SDS011;57147;53.582;10.112;2022-12-07T19:32:40;7.68;;;3.17;;
69856;SDS011;57147;53.582;10.112;2022-12-07T19:37:44;6.00;;;3.45;;
69856;SDS011;57147;53.582;10.112;2022-12-07T19:42:44;9.15;;;3.15;;
69856;SDS011;57147;53.582;10.112;2022-12-07T19:47:45;6.80;;;3.05;;
69856;SDS011;57147;53.582;10.112;2022-12-07T19:52:48;9.02;;;4.55;;
69856;SDS011;57147;53.582;10.112;2022-12-07T19:57:49;12.80;;;3.88;;
69856;SDS011;57147;53.582;10.112;2022-12-07T20:02:50;10.15;;;4.18;;
69856;SDS011;57147;53.582;10.112;2022-12-07T20:07:53;10.23;;;4.75;;
69856;SDS011;57147;53.582;10.112;2022-12-07T20:12:53;9.32;;;4.78;;
69856;SDS011;57147;53.582;10.112;2022-12-07T20:17:54;10.23;;;3.97;;
69856;SDS011;57147;53.582;10.112;2022-12-07T20:22:57;11.35;;;6.60;;
69856;SDS011;57147;53.582;10.112;2022-12-07T20:27:58;11.73;;;5.80;;
69856;SDS011;57147;53.582;10.112;2022-12-07T20:33:00;11.77;;;6.00;;
69856;SDS011;57147;53.582;10.112;2022-12-07T20:38:03;14.90;;;7.22;;
69856;SDS011;57147;53.582;10.112;2022-12-07T20:43:04;9.85;;;5.43;;
69856;SDS011;57147;53.582;10.112;2022-12-07T20:48:04;11.32;;;6.43;;
69856;SDS011;57147;53.582;10.112;2022-12-07T20:53:08;11.90;;;5.65;;
69856;SDS011;57147;53.582;10.112;2022-12-07T20:58:10;12.50;;;6.97;;
69856;SDS011;57147;53.582;10.112;2022-12-07T21:03:10;9.20;;;4.45;;
69856;SDS011;57147;53.582;10.112;2022-12-07T21:08:14;11.68;;;5.55;;
69856;SDS011;57147;53.582;10.112;2022-12-07T21:13:14;11.73;;;5.03;;
69856;SDS011;57147;53.582;10.112;2022-12-07T21:18:15;14.95;;;6.85;;
69856;SDS011;57147;53.582;10.112;2022-12-07T21:23:18;17.48;;;9.88;;
69856;SDS011;57147;53.582;10.112;2022-12-07T21:28:19;24.08;;;14.48;;
69856;SDS011;57147;53.582;10.112;2022-12-07T21:33:20;17.67;;;8.27;;
69856;SDS011;57147;53.582;10.112;2022-12-07T21:38:23;17.63;;;9.75;;
69856;SDS011;57147;53.582;10.112;2022-12-07T21:43:24;13.45;;;8.23;;
69856;SDS011;57147;53.582;10.112;2022-12-07T21:48:25;12.48;;;7.03;;
69856;SDS011;57147;53.582;10.112;2022-12-07T21:53:28;19.80;;;10.23;;
69856;SDS011;57147;53.582;10.112;2022-12-07T21:58:29;18.20;;;12.25;;
69856;SDS011;57147;53.582;10.112;2022-12-07T22:03:30;20.75;;;10.07;;
69856;SDS011;57147;53.582;10.112;2022-12-07T22:08:33;15.82;;;8.20;;
69856;SDS011;57147;53.582;10.112;2022-12-07T22:13:35;16.52;;;6.88;;
69856;SDS011;57147;53.582;10.112;2022-12-07T22:18:36;16.58;;;8.45;;
69856;SDS011;57147;53.582;10.112;2022-12-07T22:23:39;16.20;;;8.68;;
69856;SDS011;57147;53.582;10.112;2022-12-07T22:28:40;18.10;;;9.20;;
69856;SDS011;57147;53.582;10.112;2022-12-07T22:33:41;17.98;;;9.13;;
69856;SDS011;57147;53.582;10.112;2022-12-07T22:38:45;14.60;;;8.20;;
69856;SDS011;57147;53.582;10.112;2022-12-07T22:43:46;13.52;;;7.00;;
69856;SDS011;57147;53.582;10.112;2022-12-07T22:48:47;13.23;;;6.53;;
69856;SDS011;57147;53.582;10.112;2022-12-07T22:53:50;15.27;;;7.78;;
69856;SDS011;57147;53.582;10.112;2022-12-07T22:58:51;19.85;;;10.10;;
69856;SDS011;57147;53.582;10.112;2022-12-07T23:03:52;15.98;;;8.38;;
69856;SDS011;57147;53.582;10.112;2022-12-07T23:08:55;20.50;;;10.85;;
69856;SDS011;57147;53.582;10.112;2022-12-07T23:13:56;15.18;;;8.52;;
69856;SDS011;57147;53.582;10.112;2022-12-07T23:19:00;16.17;;;9.20;;
69856;SDS011;57147;53.582;10.112;2022-12-07T23:24:04;17.40;;;9.38;;
69856;SDS011;57147;53.582;10.112;2022-12-07T23:29:05;18.50;;;11.80;;
69856;SDS011;57147;53.582;10.112;2022-12-07T23:34:06;16.10;;;9.23;;
69856;SDS011;57147;53.582;10.112;2022-12-07T23:39:10;19.10;;;10.68;;
69856;SDS011;57147;53.582;10.112;2022-12-07T23:44:12;18.10;;;10.10;;
69856;SDS011;57147;53.582;10.112;2022-12-07T23:49:12;21.05;;;11.25;;
69856;SDS011;57147;53.582;10.112;2022-12-07T23:54:16;20.33;;;13.32;;
69856;SDS011;57147;53.582;10.112;2022-12-07T23:59:17;21.13;;;10.57;;
